Time;durP1;ratioP1;P1;durP2;ratioP2;P2;SDS_P1;SDS_P2;PMS_P1;PMS_P2;Temp;Humidity;BMP_temperature;BMP_pressure;BME280_temperature;BME280_humidity;BME280_pressure;Samples;Min_cycle;Max_cycle;Signal;HPM_P1;HPM_P2
2024/01/02 00:02:07;;;;;;;;;;;;;;;;;;5070042;28;20066;-80
2024/01/02 00:04:33;;;;;;;;;;;;;;;;;;5071327;28;19962;-80
2024/01/02 00:06:59;;;;;;;;;;;;;;;;;;5079185;28;19919;-80
2024/01/02 00:09:25;;;;;;;;;;;;;;;;;;5069348;28;20041;-80
2024/01/02 00:11:51;;;;;;;;;;;;;;;;;;5069269;28;19912;-80
2024/01/02 00:14:16;;;;;;;;;;;;;;;;;;5075467;28;19912;-80
2024/01/02 00:16:42;;;;;;;;;;;;;;;;;;5063300;28;19956;-80
2024/01/02 00:19:08;;;;;;;;;;;;;;;;;;5070367;28;19970;-80
2024/01/02 00:21:34;;;;;;;;;;;;;;;;;;5071378;28;19919;-80
2024/01/02 00:24:02;;;;;;;;;;;;;;;;;;5079946;28;19912;-80
2024/01/02 00:26:28;;;;;;;;;;;;;;;;;;5075624;28;19990;-80
2024/01/02 00:28:54;;;;;;;;;;;;;;;;;;5066100;28;19977;-80
2024/01/02 00:31:20;;;;;;;;;;;;;;;;;;5071693;28;19999;-80
2024/01/02 00:33:45;;;;;;;;;;;;;;;;;;5077188;28;19942;-79
2024/01/02 00:36:11;;;;;;;;;;;;;;;;;;5073369;28;19958;-79
2024/01/02 00:38:38;;;;;;;;;;;;;;;;;;5068841;28;19927;-80
2024/01/02 00:41:04;;;;;;;;;;;;;;;;;;5082635;28;20354;-80
2024/01/02 00:43:30;;;;;;;;;;;;;;;;;;5073634;28;19938;-80
2024/01/02 00:45:56;;;;;;;;;;;;;;;;;;5063549;28;19916;-80
2024/01/02 00:48:22;;;;;;;;;;;;;;;;;;5073691;28;19927;-80
2024/01/02 00:50:48;;;;;;;;;;;;;;;;;;5079608;28;19912;-79
2024/01/02 00:53:13;;;;;;;;;;;;;;;;;;5072106;28;19913;-78
2024/01/02 00:55:39;;;;;;;;;;;;;;;;;;5072366;28;19965;-79
2024/01/02 00:58:05;;;;;;;;;;;;;;;;;;5070259;28;19913;-79
2024/01/02 01:00:31;;;;;;;;;;;;;;;;;;5076034;28;20382;-78
2024/01/02 01:02:57;;;;;;;;;;;;;;;;;;5071926;28;19912;-79
2024/01/02 01:05:23;;;;;;;;;;;;;;;;;;5068052;28;19924;-79
2024/01/02 01:07:48;;;;;;;;;;;;;;;;;;5070439;28;19933;-79
2024/01/02 01:10:16;;;;;;;;;;;;;;;;;;5068255;28;19920;-79
2024/01/02 01:12:42;;;;;;;;;;;;;;;;;;5068883;28;19964;-79
2024/01/02 01:15:07;;;;;;;;;;;;;;;;;;5060890;28;19954;-79
2024/01/02 01:17:33;;;;;;;;;;;;;;;;;;5058070;28;20389;-79
2024/01/02 01:19:59;;;;;;;;;;;;;;;;;;5063743;28;19917;-79
2024/01/02 01:22:25;;;;;;;;;;;;;;;;;;5065964;28;19919;-80
2024/01/02 01:24:51;;;;;;;;;;;;;;;;;;5073981;28;20010;-79
2024/01/02 01:27:17;;;;;;;;;;;;;;;;;;5067846;28;19990;-79
2024/01/02 01:29:43;;;;;;;;;;;;;;;;;;5068625;28;20365;-79
2024/01/02 01:32:10;;;;;;;;;;;;;;;;;;5073342;28;19948;-79
2024/01/02 01:34:36;;;;;;;;;;;;;;;;;;5066416;28;19916;-79
2024/01/02 01:37:02;;;;;;;;;;;;;;;;;;5068426;28;20045;-79
2024/01/02 01:39:28;;;;;;;;;;;;;;;;;;5075757;28;19909;-79
2024/01/02 01:41:53;;;;;;;;;;;;;;;;;;5069224;28;19920;-79
2024/01/02 01:44:19;;;;;;;;;;;;;;;;;;5073643;28;19961;-79
2024/01/02 01:46:45;;;;;;;;;;;;;;;;;;5079797;28;20452;-79
2024/01/02 01:49:11;;;;;;;;;;;;;;;;;;5079620;28;20367;-79
2024/01/02 01:51:37;;;;;;;;;;;;;;;;;;5068279;28;20401;-79
2024/01/02 01:54:03;;;;;;;;;;;;;;;;;;5076147;28;20339;-79
2024/01/02 01:56:28;;;;;;;;;;;;;;;;;;5066732;28;20378;-79
2024/01/02 01:58:54;;;;;;;;;;;;;;;;;;5067611;28;19947;-78
2024/01/02 02:01:20;;;;;;;;;;;;;;;;;;5065592;28;19908;-78
2024/01/02 02:03:46;;;;;;;;;;;;;;;;;;5058825;28;19942;-79
2024/01/02 02:06:12;;;;;;;;;;;;;;;;;;5063849;28;19924;-78
2024/01/02 02:08:38;;;;;;;;;;;;;;;;;;5055832;28;20363;-78
2024/01/02 02:11:04;;;;;;;;;;;;;;;;;;5066052;28;19913;-79
2024/01/02 02:13:30;;;;;;;;;;;;;;;;;;5068970;28;19908;-78
2024/01/02 02:15:56;;;;;;;;;;;;;;;;;;5066803;28;19919;-78
2024/01/02 02:18:22;;;;;;;;;;;;;;;;;;5069299;28;19992;-78
2024/01/02 02:20:49;;;;;;;;;;;;;;;;;;5071668;28;19912;-79
2024/01/02 02:23:16;;;;;;;;;;;;;;;;;;5079117;28;19908;-78
2024/01/02 02:25:41;;;;;;;;;;;;;;;;;;5065152;28;19956;-79
2024/01/02 02:28:08;;;;;;;;;;;;;;;;;;5059828;28;19912;-79
2024/01/02 02:30:34;;;;;;;;;;;;;;;;;;5072345;28;19912;-79
2024/01/02 02:33:00;;;;;;;;;;;;;;;;;;5072626;28;19944;-79
2024/01/02 02:35:25;;;;;;;;;;;;;;;;;;5077817;28;19952;-79
2024/01/02 02:37:51;;;;;;;;;;;;;;;;;;5077263;28;19912;-79
2024/01/02 02:40:17;;;;;;;;;;;;;;;;;;5071072;28;19913;-79
2024/01/02 02:42:43;;;;;;;;;;;;;;;;;;5073383;28;19938;-78
2024/01/02 02:45:09;;;;;;;;;;;;;;;;;;5069003;28;19959;-79
2024/01/02 02:47:35;;;;;;;;;;;;;;;;;;5080048;28;19958;-78
2024/01/02 02:50:01;;;;;;;;;;;;;;;;;;5079530;28;20336;-78
2024/01/02 02:52:27;;;;;;;;;;;;;;;;;;5070914;28;20002;-78
2024/01/02 02:54:52;;;;;;;;;;;;;;;;;;5068855;28;19920;-78
2024/01/02 02:57:18;;;;;;;;;;;;;;;;;;5072271;28;20047;-78
2024/01/02 02:59:44;;;;;;;;;;;;;;;;;;5081282;28;19924;-78
2024/01/02 03:02:10;;;;;;;;;;;;;;;;;;5068043;28;19912;-78
2024/01/02 03:04:36;;;;;;;;;;;;;;;;;;5082597;28;19938;-78
2024/01/02 03:07:02;;;;;;;;;;;;;;;;;;5070801;28;19913;-79
2024/01/02 03:09:28;;;;;;;;;;;;;;;;;;5082867;28;19923;-78
2024/01/02 03:11:54;;;;;;;;;;;;;;;;;;5077977;28;19920;-78
2024/01/02 03:14:20;;;;;;;;;;;;;;;;;;5071720;28;19966;-78
2024/01/02 03:16:46;;;;;;;;;;;;;;;;;;5068865;28;19924;-79
2024/01/02 03:19:11;;;;;;;;;;;;;;;;;;5068125;28;19913;-78
2024/01/02 03:21:37;;;;;;;;;;;;;;;;;;5085783;28;19916;-78
2024/01/02 03:24:03;;;;;;;;;;;;;;;;;;5074444;28;20469;-79
2024/01/02 03:26:29;;;;;;;;;;;;;;;;;;5073719;28;20602;-79
2024/01/02 03:28:55;;;;;;;;;;;;;;;;;;5073415;28;19924;-78
2024/01/02 03:31:21;;;;;;;;;;;;;;;;;;5082036;28;19912;-78
2024/01/02 03:33:50;;;;;;;;;;;;;;;;;;5073412;28;20522;-79
2024/01/02 03:36:15;;;;;;;;;;;;;;;;;;5070239;28;19982;-79
2024/01/02 03:38:41;;;;;;;;;;;;;;;;;;5070928;28;20391;-79
2024/01/02 03:41:07;;;;;;;;;;;;;;;;;;5069817;28;20393;-78
2024/01/02 03:43:33;;;;;;;;;;;;;;;;;;5077965;28;20400;-78
2024/01/02 03:45:59;;;;;;;;;;;;;;;;;;5076408;28;20104;-79
2024/01/02 03:48:25;;;;;;;;;;;;;;;;;;5071025;28;19923;-79
2024/01/02 03:50:51;;;;;;;;;;;;;;;;;;5069501;28;19916;-78
2024/01/02 03:53:17;;;;;;;;;;;;;;;;;;5075001;28;19913;-78
2024/01/02 03:55:42;;;;;;;;;;;;;;;;;;5070269;28;19955;-79
2024/01/02 03:58:08;;;;;;;;;;;;;;;;;;5075926;28;19913;-78
2024/01/02 04:00:35;;;;;;;;;;;;;;;;;;5071377;28;19921;-78
2024/01/02 04:03:01;;;;;;;;;;;;;;;;;;5068891;28;19919;-79
2024/01/02 04:05:26;;;;;;;;;;;;;;;;;;5076587;28;19912;-79
2024/01/02 04:07:52;;;;;;;;;;;;;;;;;;5072061;28;19928;-79
2024/01/02 04:10:18;;;;;;;;;;;;;;;;;;5077892;28;20005;-78
2024/01/02 04:12:44;;;;;;;;;;;;;;;;;;5071476;28;19916;-78
2024/01/02 04:15:10;;;;;;;;;;;;;;;;;;5071600;28;19928;-79
2024/01/02 04:17:36;;;;;;;;;;;;;;;;;;5077014;28;19912;-79
2024/01/02 04:20:02;;;;;;;;;;;;;;;;;;5070710;28;19920;-78
2024/01/02 04:22:27;;;;;;;;;;;;;;;;;;5078139;28;20426;-78
2024/01/02 04:24:53;;;;;;;;;;;;;;;;;;5069801;28;19924;-78
2024/01/02 04:27:19;;;;;;;;;;;;;;;;;;5070844;28;19913;-78
2024/01/02 04:29:45;;;;;;;;;;;;;;;;;;5065385;28;19952;-79
2024/01/02 04:32:11;;;;;;;;;;;;;;;;;;5070368;28;19913;-79
2024/01/02 04:34:36;;;;;;;;;;;;;;;;;;5061263;28;19912;-78
2024/01/02 04:37:02;;;;;;;;;;;;;;;;;;5072798;28;19963;-78
2024/01/02 04:39:28;;;;;;;;;;;;;;;;;;5061286;28;19912;-78
2024/01/02 04:41:54;;;;;;;;;;;;;;;;;;5059443;28;20011;-78
2024/01/02 04:44:20;;;;;;;;;;;;;;;;;;5060577;28;19913;-78
2024/01/02 04:46:46;;;;;;;;;;;;;;;;;;5065394;28;19958;-79
2024/01/02 04:49:13;;;;;;;;;;;;;;;;;;5069157;28;19964;-78
2024/01/02 04:51:39;;;;;;;;;;;;;;;;;;5060424;28;19916;-78
2024/01/02 04:54:04;;;;;;;;;;;;;;;;;;5068091;28;19912;-79
2024/01/02 04:56:30;;;;;;;;;;;;;;;;;;5063287;28;19965;-79
2024/01/02 04:58:56;;;;;;;;;;;;;;;;;;5055319;28;19959;-78
2024/01/02 05:01:22;;;;;;;;;;;;;;;;;;5073121;28;19917;-78
2024/01/02 05:03:48;;;;;;;;;;;;;;;;;;5062308;28;19913;-78
2024/01/02 05:06:14;;;;;;;;;;;;;;;;;;5060875;28;19919;-78
2024/01/02 05:08:39;;;;;;;;;;;;;;;;;;5067208;28;20375;-78
2024/01/02 05:11:05;;;;;;;;;;;;;;;;;;5074010;28;20447;-78
2024/01/02 05:13:31;;;;;;;;;;;;;;;;;;5071058;28;19912;-79
2024/01/02 05:15:57;;;;;;;;;;;;;;;;;;5071105;28;19912;-78
2024/01/02 05:18:23;;;;;;;;;;;;;;;;;;5070253;28;20421;-79
2024/01/02 05:20:49;;;;;;;;;;;;;;;;;;5076126;28;20550;-78
2024/01/02 05:23:15;;;;;;;;;;;;;;;;;;5067755;28;19955;-79
2024/01/02 05:25:40;;;;;;;;;;;;;;;;;;5067787;28;20282;-79
2024/01/02 05:28:06;;;;;;;;;;;;;;;;;;5071743;28;20438;-78
2024/01/02 05:30:32;;;;;;;;;;;;;;;;;;5069700;28;20003;-78
2024/01/02 05:32:58;;;;;;;;;;;;;;;;;;5066727;28;19920;-79
2024/01/02 05:35:24;;;;;;;;;;;;;;;;;;5074671;28;20078;-79
2024/01/02 05:37:50;;;;;;;;;;;;;;;;;;5068001;28;19935;-78
2024/01/02 05:40:15;;;;;;;;;;;;;;;;;;5067719;28;19944;-79
2024/01/02 05:42:41;;;;;;;;;;;;;;;;;;5061771;28;19916;-78
2024/01/02 05:45:07;;;;;;;;;;;;;;;;;;5065380;28;19912;-78
2024/01/02 05:47:33;;;;;;;;;;;;;;;;;;5066717;28;19956;-78
2024/01/02 05:49:59;;;;;;;;;;;;;;;;;;5065825;28;20500;-79
2024/01/02 05:52:25;;;;;;;;;;;;;;;;;;5058603;28;19916;-79
2024/01/02 05:54:50;;;;;;;;;;;;;;;;;;5065088;28;19941;-79
2024/01/02 05:57:16;;;;;;;;;;;;;;;;;;5068077;28;20020;-79
2024/01/02 05:59:42;;;;;;;;;;;;;;;;;;5067171;28;19923;-78
2024/01/02 06:02:08;;;;;;;;;;;;;;;;;;5068450;28;19912;-78
2024/01/02 06:04:34;;;;;;;;;;;;;;;;;;5068747;28;19913;-79
2024/01/02 06:07:00;;;;;;;;;;;;;;;;;;5059619;28;19991;-81
2024/01/02 06:09:25;;;;;;;;;;;;;;;;;;5058219;28;20371;-80
2024/01/02 06:11:51;;;;;;;;;;;;;;;;;;5069326;28;20426;-79
2024/01/02 06:14:18;;;;;;;;;;;;;;;;;;5068443;28;20433;-80
2024/01/02 06:16:43;;;;;;;;;;;;;;;;;;5073386;28;19917;-80
2024/01/02 06:19:09;;;;;;;;;;;;;;;;;;5067654;28;20302;-79
2024/01/02 06:21:35;;;;;;;;;;;;;;;;;;5072756;28;19912;-80
2024/01/02 06:24:02;;;;;;;;;;;;;;;;;;5065127;28;20030;-79
2024/01/02 06:26:28;;;;;;;;;;;;;;;;;;5075477;28;20397;-79
2024/01/02 06:28:54;;;;;;;;;;;;;;;;;;5075317;28;19924;-79
2024/01/02 06:31:20;;;;;;;;;;;;;;;;;;5068511;28;19912;-87
2024/01/02 06:33:46;;;;;;;;;;;;;;;;;;5063013;28;19917;-88
2024/01/02 06:36:11;;;;;;;;;;;;;;;;;;5065168;28;20386;-89
2024/01/02 06:38:38;;;;;;;;;;;;;;;;;;5068702;28;19973;-88
2024/01/02 06:41:04;;;;;;;;;;;;;;;;;;5083029;28;20294;-88
2024/01/02 06:43:30;;;;;;;;;;;;;;;;;;5071260;28;19960;-87
2024/01/02 06:45:56;;;;;;;;;;;;;;;;;;5076887;28;20352;-84
2024/01/02 06:48:21;;;;;;;;;;;;;;;;;;5070673;28;19917;-84
2024/01/02 06:50:47;;;;;;;;;;;;;;;;;;5069855;28;19916;-86
2024/01/02 06:53:13;;;;;;;;;;;;;;;;;;5071297;28;19909;-87
2024/01/02 06:55:39;;;;;;;;;;;;;;;;;;5070795;28;19923;-89
2024/01/02 06:58:05;;;;;;;;;;;;;;;;;;5073514;28;19912;-89
2024/01/02 07:00:32;;;;;;;;;;;;;;;;;;5070448;28;19958;-89
2024/01/02 07:02:58;;;;;;;;;;;;;;;;;;5075523;28;19944;-90
2024/01/02 07:05:24;;;;;;;;;;;;;;;;;;5071168;28;19916;-89
2024/01/02 07:07:50;;;;;;;;;;;;;;;;;;5069763;28;20298;-88
2024/01/02 07:10:16;;;;;;;;;;;;;;;;;;5060872;28;20318;-85
2024/01/02 07:12:42;;;;;;;;;;;;;;;;;;5066409;28;19931;-88
2024/01/02 07:15:08;;;;;;;;;;;;;;;;;;5062919;28;19913;-86
2024/01/02 07:17:33;;;;;;;;;;;;;;;;;;5065142;28;19978;-86
2024/01/02 07:19:59;;;;;;;;;;;;;;;;;;5083942;28;19916;-86
2024/01/02 07:22:26;;;;;;;;;;;;;;;;;;5069594;28;19920;-87
2024/01/02 07:24:52;;;;;;;;;;;;;;;;;;5076785;28;19916;-86
2024/01/02 07:27:18;;;;;;;;;;;;;;;;;;5071046;28;19935;-87
2024/01/02 07:29:44;;;;;;;;;;;;;;;;;;5070659;28;19949;-86
2024/01/02 07:32:10;;;;;;;;;;;;;;;;;;5073402;28;19925;-86
2024/01/02 07:34:36;;;;;;;;;;;;;;;;;;5073575;28;19912;-85
2024/01/02 07:37:02;;;;;;;;;;;;;;;;;;5076664;28;19920;-86
2024/01/02 07:39:28;;;;;;;;;;;;;;;;;;5071123;28;19913;-87
2024/01/02 07:41:54;;;;;;;;;;;;;;;;;;5074067;28;19919;-86
2024/01/02 07:44:21;;;;;;;;;;;;;;;;;;5074248;28;19920;-87
2024/01/02 07:46:47;;;;;;;;;;;;;;;;;;5070097;28;20415;-87
2024/01/02 07:49:13;;;;;;;;;;;;;;;;;;5069896;28;19920;-85
2024/01/02 07:51:39;;;;;;;;;;;;;;;;;;5066700;28;19919;-86
2024/01/02 07:54:04;;;;;;;;;;;;;;;;;;5064641;28;19917;-86
2024/01/02 07:56:30;;;;;;;;;;;;;;;;;;5067778;28;20367;-86
2024/01/02 07:58:56;;;;;;;;;;;;;;;;;;5070237;28;19912;-87
2024/01/02 08:01:22;;;;;;;;;;;;;;;;;;5069695;28;19938;-87
2024/01/02 08:03:48;;;;;;;;;;;;;;;;;;5069138;28;20386;-85
2024/01/02 08:06:14;;;;;;;;;;;;;;;;;;5070049;28;19920;-85
2024/01/02 08:08:40;;;;;;;;;;;;;;;;;;5068275;28;19924;-86
2024/01/02 08:11:08;;;;;;;;;;;;;;;;;;5068902;28;19938;-86
2024/01/02 08:13:33;;;;;;;;;;;;;;;;;;5069468;28;19912;-87
2024/01/02 08:15:59;;;;;;;;;;;;;;;;;;5069342;28;19912;-86
2024/01/02 08:18:25;;;;;;;;;;;;;;;;;;5070915;28;19913;-86
2024/01/02 08:20:51;;;;;;;;;;;;;;;;;;5074235;28;19914;-86
2024/01/02 08:23:17;;;;;;;;;;;;;;;;;;5070901;28;19920;-86
2024/01/02 08:25:43;;;;;;;;;;;;;;;;;;5068426;28;19920;-86
2024/01/02 08:28:08;;;;;;;;;;;;;;;;;;5069608;28;19923;-86
2024/01/02 08:30:34;;;;;;;;;;;;;;;;;;5066679;28;19913;-86
2024/01/02 08:33:00;;;;;;;;;;;;;;;;;;5070520;28;19927;-86
2024/01/02 08:35:26;;;;;;;;;;;;;;;;;;5073342;28;19913;-87
2024/01/02 08:37:52;;;;;;;;;;;;;;;;;;5073831;28;19913;-87
2024/01/02 08:40:18;;;;;;;;;;;;;;;;;;5071981;28;19913;-86
2024/01/02 08:42:44;;;;;;;;;;;;;;;;;;5070754;28;19917;-86
2024/01/02 08:45:10;;;;;;;;;;;;;;;;;;5068252;28;19917;-86
2024/01/02 08:47:38;;;;;;;;;;;;;;;;;;5069583;28;19916;-85
2024/01/02 08:50:04;;;;;;;;;;;;;;;;;;5068314;28;19942;-87
2024/01/02 08:52:31;;;;;;;;;;;;;;;;;;5068779;28;19921;-86
2024/01/02 08:54:57;;;;;;;;;;;;;;;;;;5070005;28;19913;-85
2024/01/02 08:57:23;;;;;;;;;;;;;;;;;;5069613;28;20015;-85
2024/01/02 08:59:48;;;;;;;;;;;;;;;;;;5083102;28;19946;-85
2024/01/02 09:02:14;;;;;;;;;;;;;;;;;;5068763;28;19916;-87
2024/01/02 09:04:42;;;;;;;;;;;;;;;;;;5067184;28;20272;-83
2024/01/02 09:07:08;;;;;;;;;;;;;;;;;;5067103;28;19925;-84
2024/01/02 09:09:34;;;;;;;;;;;;;;;;;;5067791;28;19920;-84
2024/01/02 09:12:01;;;;;;;;;;;;;;;;;;5067182;28;20011;-84
2024/01/02 09:14:27;;;;;;;;;;;;;;;;;;5062763;28;19912;-85
2024/01/02 09:16:52;;;;;;;;;;;;;;;;;;5065847;28;19917;-84
2024/01/02 09:19:18;;;;;;;;;;;;;;;;;;5066197;28;20007;-84
2024/01/02 09:21:44;;;;;;;;;;;;;;;;;;5066459;28;19920;-85
2024/01/02 09:24:10;;;;;;;;;;;;;;;;;;5063746;28;19917;-85
2024/01/02 09:26:37;;;;;;;;;;;;;;;;;;5066429;28;19908;-83
2024/01/02 09:29:03;;;;;;;;;;;;;;;;;;5064406;28;19947;-80
2024/01/02 09:31:30;;;;;;;;;;;;;;;;;;5061617;28;20275;-82
2024/01/02 09:33:56;;;;;;;;;;;;;;;;;;5062354;28;19913;-83
2024/01/02 09:36:22;;;;;;;;;;;;;;;;;;5058666;28;20730;-83
2024/01/02 09:38:48;;;;;;;;;;;;;;;;;;5064387;28;19909;-82
2024/01/02 09:41:32;;;;;;;;;;;;;;;;;;5062298;28;20374;-81
2024/01/02 09:43:58;;;;;;;;;;;;;;;;;;5061285;28;19919;-82
2024/01/02 09:46:24;;;;;;;;;;;;;;;;;;5073754;28;19916;-81
2024/01/02 09:48:50;;;;;;;;;;;;;;;;;;5068375;28;20405;-82
2024/01/02 09:51:16;;;;;;;;;;;;;;;;;;5069531;28;20000;-81
2024/01/02 09:53:41;;;;;;;;;;;;;;;;;;5068081;28;19913;-81
2024/01/02 09:56:07;;;;;;;;;;;;;;;;;;5066942;28;20345;-81
2024/01/02 09:58:34;;;;;;;;;;;;;;;;;;5074198;28;19916;-81
2024/01/02 10:01:00;;;;;;;;;;;;;;;;;;5075141;28;19919;-80
2024/01/02 10:03:25;;;;;;;;;;;;;;;;;;5069108;28;19912;-79
2024/01/02 10:05:52;;;;;;;;;;;;;;;;;;5062750;28;20444;-79
2024/01/02 10:08:17;;;;;;;;;;;;;;;;;;5066809;28;19927;-79
2024/01/02 10:10:43;;;;;;;;;;;;;;;;;;5066148;28;19917;-79
2024/01/02 10:13:09;;;;;;;;;;;;;;;;;;5066762;28;19977;-79
2024/01/02 10:15:35;;;;;;;;;;;;;;;;;;5066117;28;19958;-79
2024/01/02 10:18:01;;;;;;;;;;;;;;;;;;5067525;28;19912;-79
2024/01/02 10:20:27;;;;;;;;;;;;;;;;;;5066960;28;19920;-78
2024/01/02 10:22:53;;;;;;;;;;;;;;;;;;5067081;28;20529;-79
2024/01/02 10:25:19;;;;;;;;;;;;;;;;;;5066420;28;19913;-79
2024/01/02 10:27:44;;;;;;;;;;;;;;;;;;5065985;28;20251;-79
2024/01/02 10:30:11;;;;;;;;;;;;;;;;;;5066834;28;19920;-79
2024/01/02 10:32:36;;;;;;;;;;;;;;;;;;5067018;28;19912;-79
2024/01/02 10:35:04;;;;;;;;;;;;;;;;;;5066632;28;20017;-81
2024/01/02 10:37:30;;;;;;;;;;;;;;;;;;5065783;28;19920;-80
2024/01/02 10:39:56;;;;;;;;;;;;;;;;;;5065383;28;19921;-80
2024/01/02 10:42:21;;;;;;;;;;;;;;;;;;5067156;28;19949;-81
2024/01/02 10:44:47;;;;;;;;;;;;;;;;;;5066619;28;20286;-81
2024/01/02 10:47:13;;;;;;;;;;;;;;;;;;5064826;28;20611;-80
2024/01/02 10:49:39;;;;;;;;;;;;;;;;;;5066796;28;20321;-80
2024/01/02 10:52:05;;;;;;;;;;;;;;;;;;5070511;28;20291;-80
2024/01/02 10:54:31;;;;;;;;;;;;;;;;;;5070004;28;19920;-83
2024/01/02 10:56:56;;;;;;;;;;;;;;;;;;5066320;28;19963;-76
2024/01/02 10:59:22;;;;;;;;;;;;;;;;;;5060879;28;19927;-79
2024/01/02 11:01:48;;;;;;;;;;;;;;;;;;5068984;28;19917;-81
2024/01/02 11:04:14;;;;;;;;;;;;;;;;;;5067053;28;19920;-78
2024/01/02 11:06:40;;;;;;;;;;;;;;;;;;5066951;28;20752;-78
2024/01/02 11:09:06;;;;;;;;;;;;;;;;;;5069271;28;20558;-74
2024/01/02 11:11:33;;;;;;;;;;;;;;;;;;5067475;28;19939;-74
2024/01/02 11:13:58;;;;;;;;;;;;;;;;;;5068169;28;20374;-74
2024/01/02 11:16:24;;;;;;;;;;;;;;;;;;5067626;28;19919;-74
2024/01/02 11:18:50;;;;;;;;;;;;;;;;;;5068099;28;19923;-74
2024/01/02 11:21:16;;;;;;;;;;;;;;;;;;5067446;28;20011;-78
2024/01/02 11:23:42;;;;;;;;;;;;;;;;;;5064323;28;19920;-78
2024/01/02 11:26:08;;;;;;;;;;;;;;;;;;5066430;28;19969;-78
2024/01/02 11:28:34;;;;;;;;;;;;;;;;;;5066937;28;19932;-78
2024/01/02 11:31:01;;;;;;;;;;;;;;;;;;5066309;28;19920;-78
2024/01/02 11:33:27;;;;;;;;;;;;;;;;;;5065070;28;19913;-78
2024/01/02 11:35:53;;;;;;;;;;;;;;;;;;5068070;28;19931;-79
2024/01/02 11:38:18;;;;;;;;;;;;;;;;;;5066968;28;19956;-79
2024/01/02 11:40:44;;;;;;;;;;;;;;;;;;5066637;28;19920;-79
2024/01/02 11:43:12;;;;;;;;;;;;;;;;;;5067859;28;19951;-79
2024/01/02 11:45:37;;;;;;;;;;;;;;;;;;5067556;28;19920;-79
2024/01/02 11:48:03;;;;;;;;;;;;;;;;;;5067080;28;19925;-79
2024/01/02 11:50:29;;;;;;;;;;;;;;;;;;5068526;28;19995;-80
2024/01/02 11:52:55;;;;;;;;;;;;;;;;;;5065384;28;19916;-79
2024/01/02 11:55:21;;;;;;;;;;;;;;;;;;5068435;28;19924;-79
2024/01/02 11:57:47;;;;;;;;;;;;;;;;;;5067231;28;19918;-79
2024/01/02 12:00:12;;;;;;;;;;;;;;;;;;5066463;28;19920;-79
2024/01/02 12:02:38;;;;;;;;;;;;;;;;;;5065623;28;19912;-79
2024/01/02 12:05:04;;;;;;;;;;;;;;;;;;5068714;28;20002;-79
2024/01/02 12:07:30;;;;;;;;;;;;;;;;;;5067568;28;19999;-79
2024/01/02 12:09:57;;;;;;;;;;;;;;;;;;5066701;28;19971;-79
2024/01/02 12:12:23;;;;;;;;;;;;;;;;;;5069397;28;19913;-79
2024/01/02 12:14:49;;;;;;;;;;;;;;;;;;5067192;28;19912;-79
2024/01/02 12:17:16;;;;;;;;;;;;;;;;;;5052102;28;19947;-80
2024/01/02 12:19:41;;;;;;;;;;;;;;;;;;5055592;28;19924;-80
2024/01/02 12:22:07;;;;;;;;;;;;;;;;;;5067846;28;19939;-79
2024/01/02 12:24:33;;;;;;;;;;;;;;;;;;5068464;28;19916;-79
2024/01/02 12:26:59;;;;;;;;;;;;;;;;;;5066361;28;19917;-80
2024/01/02 12:29:25;;;;;;;;;;;;;;;;;;5068609;28;20081;-79
2024/01/02 12:31:51;;;;;;;;;;;;;;;;;;5068301;28;19912;-80
2024/01/02 12:34:17;;;;;;;;;;;;;;;;;;5063609;28;19927;-80
2024/01/02 12:36:42;;;;;;;;;;;;;;;;;;5081743;28;20007;-78
2024/01/02 12:39:10;;;;;;;;;;;;;;;;;;5067328;28;19916;-78
2024/01/02 12:41:36;;;;;;;;;;;;;;;;;;5074928;28;19999;-79
2024/01/02 12:44:02;;;;;;;;;;;;;;;;;;5076510;28;20003;-77
2024/01/02 12:46:28;;;;;;;;;;;;;;;;;;5070919;28;19919;-78
2024/01/02 12:48:53;;;;;;;;;;;;;;;;;;5071564;28;19912;-78
2024/01/02 12:51:19;;;;;;;;;;;;;;;;;;5069871;28;19908;-78
2024/01/02 12:53:45;;;;;;;;;;;;;;;;;;5069809;28;19930;-78
2024/01/02 12:56:17;;;;;;;;;;;;;;;;;;5056810;28;19974;-77
2024/01/02 12:58:42;;;;;;;;;;;;;;;;;;5062672;28;20317;-77
2024/01/02 13:01:08;;;;;;;;;;;;;;;;;;5069495;28;19912;-79
2024/01/02 13:03:34;;;;;;;;;;;;;;;;;;5069907;28;20379;-80
2024/01/02 13:06:01;;;;;;;;;;;;;;;;;;5068988;28;20282;-77
2024/01/02 13:08:27;;;;;;;;;;;;;;;;;;5068935;28;19920;-78
2024/01/02 13:10:53;;;;;;;;;;;;;;;;;;5065098;28;19931;-79
2024/01/02 13:13:19;;;;;;;;;;;;;;;;;;5062975;28;19908;-79
2024/01/02 13:15:45;;;;;;;;;;;;;;;;;;5074768;28;19965;-80
2024/01/02 13:18:11;;;;;;;;;;;;;;;;;;5069206;28;19924;-79
2024/01/02 13:20:38;;;;;;;;;;;;;;;;;;5065507;28;19992;-79
2024/01/02 13:23:04;;;;;;;;;;;;;;;;;;5070190;28;19916;-79
2024/01/02 13:25:30;;;;;;;;;;;;;;;;;;5072826;28;19980;-79
2024/01/02 13:27:56;;;;;;;;;;;;;;;;;;5074679;28;20010;-79
2024/01/02 13:30:22;;;;;;;;;;;;;;;;;;5066054;28;20428;-79
2024/01/02 13:32:47;;;;;;;;;;;;;;;;;;5070048;28;20584;-79
2024/01/02 13:35:13;;;;;;;;;;;;;;;;;;5072611;28;20277;-79
2024/01/02 13:37:39;;;;;;;;;;;;;;;;;;5085603;28;20267;-79
2024/01/02 13:40:05;;;;;;;;;;;;;;;;;;5072615;28;20553;-78
2024/01/02 13:42:33;;;;;;;;;;;;;;;;;;5072709;28;19954;-80
2024/01/02 13:44:59;;;;;;;;;;;;;;;;;;5068584;28;19999;-78
2024/01/02 13:47:24;;;;;;;;;;;;;;;;;;5064353;28;19935;-78
2024/01/02 13:49:52;;;;;;;;;;;;;;;;;;5064646;28;19920;-78
2024/01/02 13:52:18;;;;;;;;;;;;;;;;;;5067373;28;20409;-78
2024/01/02 13:54:44;;;;;;;;;;;;;;;;;;5066771;28;19920;-78
2024/01/02 13:57:10;;;;;;;;;;;;;;;;;;5066885;28;19912;-78
2024/01/02 13:59:36;;;;;;;;;;;;;;;;;;5069075;28;20422;-78
2024/01/02 14:02:03;;;;;;;;;;;;;;;;;;5061496;28;19912;-78
2024/01/02 14:04:29;;;;;;;;;;;;;;;;;;5063228;28;20334;-79
2024/01/02 14:07:01;;;;;;;;;;;;;;;;;;5063217;28;19919;-78
2024/01/02 14:09:27;;;;;;;;;;;;;;;;;;5064449;28;19924;-78
2024/01/02 14:11:54;;;;;;;;;;;;;;;;;;5064307;28;19943;-78
2024/01/02 14:14:20;;;;;;;;;;;;;;;;;;5062782;28;19916;-78
2024/01/02 14:16:46;;;;;;;;;;;;;;;;;;5063690;28;19913;-78
2024/01/02 14:19:12;;;;;;;;;;;;;;;;;;5067748;28;19917;-78
2024/01/02 14:21:38;;;;;;;;;;;;;;;;;;5062478;28;19927;-79
2024/01/02 14:24:04;;;;;;;;;;;;;;;;;;5062368;28;19967;-79
2024/01/02 14:26:30;;;;;;;;;;;;;;;;;;5067950;28;19912;-79
2024/01/02 14:28:57;;;;;;;;;;;;;;;;;;5067043;28;20375;-79
2024/01/02 14:31:22;;;;;;;;;;;;;;;;;;5068094;28;20129;-80
2024/01/02 14:33:48;;;;;;;;;;;;;;;;;;5067759;28;20040;-79
2024/01/02 14:36:15;;;;;;;;;;;;;;;;;;5066958;28;19919;-79
2024/01/02 14:38:40;;;;;;;;;;;;;;;;;;5066473;28;20581;-78
2024/01/02 14:41:08;;;;;;;;;;;;;;;;;;5067391;28;19940;-78
2024/01/02 14:43:34;;;;;;;;;;;;;;;;;;5067885;28;19959;-78
2024/01/02 14:46:02;;;;;;;;;;;;;;;;;;5068305;28;20359;-78
2024/01/02 14:48:28;;;;;;;;;;;;;;;;;;5065968;28;20164;-79
2024/01/02 14:50:54;;;;;;;;;;;;;;;;;;5066541;28;19920;-78
2024/01/02 14:53:20;;;;;;;;;;;;;;;;;;5070497;28;20367;-77
2024/01/02 14:55:46;;;;;;;;;;;;;;;;;;5067300;28;20401;-80
2024/01/02 14:58:14;;;;;;;;;;;;;;;;;;5066025;28;20286;-77
2024/01/02 15:00:40;;;;;;;;;;;;;;;;;;5067467;28;19916;-80
2024/01/02 15:03:06;;;;;;;;;;;;;;;;;;5066994;28;20298;-80
2024/01/02 15:05:33;;;;;;;;;;;;;;;;;;5067998;28;19912;-80
2024/01/02 15:07:59;;;;;;;;;;;;;;;;;;5068617;28;19956;-77
2024/01/02 15:10:24;;;;;;;;;;;;;;;;;;5070917;28;20005;-80
2024/01/02 15:12:50;;;;;;;;;;;;;;;;;;5081481;28;19912;-80
2024/01/02 15:15:16;;;;;;;;;;;;;;;;;;5076052;28;19916;-80
2024/01/02 15:17:43;;;;;;;;;;;;;;;;;;5069768;28;20290;-80
2024/01/02 15:20:10;;;;;;;;;;;;;;;;;;5074106;28;19935;-80
2024/01/02 15:22:36;;;;;;;;;;;;;;;;;;5080018;28;20317;-80
2024/01/02 15:25:02;;;;;;;;;;;;;;;;;;5076365;28;19912;-81
2024/01/02 15:27:28;;;;;;;;;;;;;;;;;;5076456;28;19909;-80
2024/01/02 15:29:55;;;;;;;;;;;;;;;;;;5063392;28;19916;-80
2024/01/02 15:32:23;;;;;;;;;;;;;;;;;;5076810;28;19965;-80
2024/01/02 15:34:49;;;;;;;;;;;;;;;;;;5073711;28;19912;-81
2024/01/02 15:37:16;;;;;;;;;;;;;;;;;;5085049;28;19954;-81
2024/01/02 15:39:41;;;;;;;;;;;;;;;;;;5067850;28;19916;-80
2024/01/02 15:42:07;;;;;;;;;;;;;;;;;;5065512;28;19919;-80
2024/01/02 15:44:33;;;;;;;;;;;;;;;;;;5070905;28;19962;-81
2024/01/02 15:46:59;;;;;;;;;;;;;;;;;;5070000;28;19909;-81
2024/01/02 15:49:25;;;;;;;;;;;;;;;;;;5080708;28;20342;-81
2024/01/02 15:51:51;;;;;;;;;;;;;;;;;;5071584;28;19924;-80
2024/01/02 15:54:18;;;;;;;;;;;;;;;;;;5080558;28;19921;-81
2024/01/02 15:56:44;;;;;;;;;;;;;;;;;;5078589;28;19942;-80
2024/01/02 15:59:10;;;;;;;;;;;;;;;;;;5071065;28;19912;-81
2024/01/02 16:01:36;;;;;;;;;;;;;;;;;;5080239;28;19944;-80
2024/01/02 16:04:02;;;;;;;;;;;;;;;;;;5066126;28;19912;-80
2024/01/02 16:06:27;;;;;;;;;;;;;;;;;;5076398;28;19908;-80
2024/01/02 16:08:53;;;;;;;;;;;;;;;;;;5071899;28;20058;-80
2024/01/02 16:11:19;;;;;;;;;;;;;;;;;;5068833;28;19923;-78
2024/01/02 16:13:46;;;;;;;;;;;;;;;;;;5073199;28;19912;-78
2024/01/02 16:16:12;;;;;;;;;;;;;;;;;;5064038;28;20439;-80
2024/01/02 16:18:38;;;;;;;;;;;;;;;;;;5068573;28;19913;-79
2024/01/02 16:21:04;;;;;;;;;;;;;;;;;;5063359;28;19920;-82
2024/01/02 16:23:30;;;;;;;;;;;;;;;;;;5081894;28;20375;-78
2024/01/02 16:25:56;;;;;;;;;;;;;;;;;;5073208;28;20385;-85
2024/01/02 16:28:22;;;;;;;;;;;;;;;;;;5083986;28;20298;-85
2024/01/02 16:30:48;;;;;;;;;;;;;;;;;;5076491;28;22170;-78
2024/01/02 16:33:14;;;;;;;;;;;;;;;;;;5074252;28;19918;-78
2024/01/02 16:35:39;;;;;;;;;;;;;;;;;;5072714;28;19918;-84
2024/01/02 16:38:06;;;;;;;;;;;;;;;;;;5070930;28;19912;-79